createdAt,value
2024-03-26T00:01:48.874Z,4.87
2024-03-26T00:04:20.186Z,4.83
2024-03-26T00:06:51.593Z,4.83
2024-03-26T00:09:23.075Z,4.81
2024-03-26T00:11:54.527Z,4.81
2024-03-26T00:14:25.824Z,4.81
2024-03-26T00:16:57.167Z,4.81
2024-03-26T00:19:28.982Z,4.81
2024-03-26T00:21:58.902Z,4.80
2024-03-26T00:24:30.286Z,4.75
2024-03-26T00:27:01.623Z,4.71
2024-03-26T00:29:32.955Z,4.72
2024-03-26T00:32:04.459Z,4.70
2024-03-26T00:34:36.007Z,4.67
2024-03-26T00:37:07.371Z,4.65
2024-03-26T00:39:38.704Z,4.62
2024-03-26T00:42:10.003Z,4.57
2024-03-26T00:44:41.324Z,4.54
2024-03-26T00:47:12.617Z,4.55
2024-03-26T00:49:43.957Z,4.54
2024-03-26T00:52:15.301Z,4.53
2024-03-26T00:54:47.823Z,4.52
2024-03-26T00:57:19.179Z,4.48
2024-03-26T00:59:50.594Z,4.41
2024-03-26T01:02:22.294Z,4.36
2024-03-26T01:04:53.876Z,4.35
2024-03-26T01:07:25.175Z,4.33
2024-03-26T01:09:56.524Z,4.31
2024-03-26T01:12:27.820Z,4.27
2024-03-26T01:14:59.279Z,4.23
2024-03-26T01:17:30.697Z,4.19
2024-03-26T01:20:02.394Z,4.17
2024-03-26T01:22:33.747Z,4.15
2024-03-26T01:25:07.014Z,4.11
2024-03-26T01:27:38.371Z,4.07
2024-03-26T01:30:12.567Z,4.03
2024-03-26T01:32:44.054Z,4.03
2024-03-26T01:35:15.606Z,4.01
2024-03-26T01:37:48.377Z,3.96
2024-03-26T01:40:19.745Z,3.91
2024-03-26T01:42:51.812Z,3.91
2024-03-26T01:45:23.489Z,3.89
2024-03-26T01:47:55.035Z,3.89
2024-03-26T01:50:26.656Z,3.88
2024-03-26T01:52:58.052Z,3.86
2024-03-26T01:55:30.154Z,3.89
2024-03-26T01:58:03.476Z,3.90
2024-03-26T02:00:35.322Z,3.91
2024-03-26T02:03:05.265Z,3.91
2024-03-26T02:05:37.377Z,3.89
2024-03-26T02:08:11.192Z,3.90
2024-03-26T02:10:42.799Z,3.89
2024-03-26T02:13:14.116Z,3.88
2024-03-26T02:15:45.521Z,3.81
2024-03-26T02:18:16.896Z,3.75
2024-03-26T02:20:48.977Z,3.72
2024-03-26T02:23:24.075Z,3.71
2024-03-26T02:25:55.378Z,3.66
2024-03-26T02:28:26.793Z,3.62
2024-03-26T02:30:58.160Z,3.62
2024-03-26T02:33:29.848Z,3.64
2024-03-26T02:36:01.254Z,3.65
2024-03-26T02:38:32.653Z,3.61
2024-03-26T02:41:04.619Z,3.60
2024-03-26T02:43:38.623Z,3.60
2024-03-26T02:46:09.975Z,3.63
2024-03-26T02:48:41.313Z,3.64
2024-03-26T02:51:12.679Z,3.60
2024-03-26T02:53:44.031Z,3.57
2024-03-26T02:56:15.416Z,3.56
2024-03-26T02:58:46.697Z,3.61
2024-03-26T03:01:19.351Z,3.61
2024-03-26T03:04:18.527Z,3.59
2024-03-26T03:06:49.928Z,3.56
2024-03-26T03:09:21.272Z,3.55
2024-03-26T03:11:52.581Z,3.57
2024-03-26T03:14:24.026Z,3.59
2024-03-26T03:16:55.448Z,3.61
2024-03-26T03:19:26.785Z,3.64
2024-03-26T03:21:59.190Z,3.66
2024-03-26T03:24:30.510Z,3.68
2024-03-26T03:27:01.863Z,3.74
2024-03-26T03:29:33.240Z,3.79
2024-03-26T03:32:04.795Z,3.83
2024-03-26T03:34:36.199Z,3.85
2024-03-26T03:37:07.548Z,3.85
2024-03-26T03:39:38.911Z,3.86
2024-03-26T03:42:10.294Z,3.91
2024-03-26T03:44:42.008Z,3.95
2024-03-26T03:47:13.356Z,3.96
2024-03-26T03:49:45.083Z,3.97
2024-03-26T03:52:16.753Z,3.98
2024-03-26T03:54:48.045Z,3.99
2024-03-26T03:57:19.609Z,4.03
2024-03-26T03:59:51.415Z,4.04
2024-03-26T04:02:22.747Z,4.02
2024-03-26T04:04:54.079Z,4.02
2024-03-26T04:07:25.554Z,4.00
2024-03-26T04:09:57.277Z,3.98
2024-03-26T04:12:29.449Z,3.98
2024-03-26T04:15:00.783Z,3.99
2024-03-26T04:17:32.134Z,3.97
2024-03-26T04:20:03.531Z,3.93
2024-03-26T04:22:35.270Z,3.87
2024-03-26T04:25:07.430Z,3.80
2024-03-26T04:27:39.065Z,3.69
2024-03-26T04:30:11.776Z,3.57
2024-03-26T04:32:43.280Z,3.45
2024-03-26T04:35:14.682Z,3.37
2024-03-26T04:37:45.990Z,3.34
2024-03-26T04:40:18.682Z,3.31
2024-03-26T04:42:50.002Z,3.27
2024-03-26T04:45:21.364Z,3.25
2024-03-26T04:47:52.747Z,3.25
2024-03-26T04:50:24.088Z,3.29
2024-03-26T04:52:55.993Z,3.31
2024-03-26T04:55:26.526Z,3.29
2024-03-26T04:57:58.080Z,3.24
2024-03-26T05:00:29.653Z,3.22
2024-03-26T05:03:03.032Z,3.22
2024-03-26T05:05:34.816Z,3.24
2024-03-26T05:08:05.119Z,3.25
2024-03-26T05:10:36.674Z,3.24
2024-03-26T05:13:08.234Z,3.22
2024-03-26T05:15:39.784Z,3.21
2024-03-26T05:18:11.541Z,3.25
2024-03-26T05:20:43.097Z,3.28
2024-03-26T05:23:15.723Z,3.31
2024-03-26T05:25:47.231Z,3.33
2024-03-26T05:28:18.795Z,3.35
2024-03-26T05:30:51.163Z,3.42
2024-03-26T05:33:22.717Z,3.53
2024-03-26T05:35:54.299Z,3.64
2024-03-26T05:38:25.825Z,3.74
2024-03-26T05:40:58.209Z,3.82
2024-03-26T05:43:29.759Z,3.86
2024-03-26T05:46:01.220Z,3.90
2024-03-26T05:48:32.651Z,3.93
2024-03-26T05:51:04.057Z,3.98
2024-03-26T05:53:35.448Z,4.03
2024-03-26T05:56:09.224Z,4.06
2024-03-26T05:58:41.965Z,4.08
2024-03-26T06:01:13.336Z,4.14
2024-03-26T06:03:45.177Z,4.24
2024-03-26T06:06:15.243Z,4.34
2024-03-26T06:08:46.641Z,4.39
2024-03-26T06:11:18.016Z,4.45
2024-03-26T06:13:49.393Z,4.53
2024-03-26T06:16:21.537Z,4.62
2024-03-26T06:18:52.960Z,4.76
2024-03-26T06:21:24.296Z,4.85
2024-03-26T06:23:55.976Z,4.92
2024-03-26T06:26:27.415Z,4.97
2024-03-26T06:28:58.913Z,5.03
2024-03-26T06:31:30.227Z,5.09
2024-03-26T06:34:01.589Z,5.17
2024-03-26T06:36:32.915Z,5.25
2024-03-26T06:39:05.318Z,5.30
2024-03-26T06:41:36.869Z,5.38
2024-03-26T06:44:08.346Z,5.49
2024-03-26T06:46:40.572Z,5.59
2024-03-26T06:49:14.233Z,5.74
2024-03-26T06:51:46.096Z,5.88
2024-03-26T06:54:18.780Z,5.94
2024-03-26T06:56:50.319Z,6.02
2024-03-26T06:59:21.623Z,6.12
2024-03-26T07:01:52.950Z,6.22
2024-03-26T07:04:24.284Z,6.33
2024-03-26T07:06:55.563Z,6.49
2024-03-26T07:09:27.127Z,6.63
2024-03-26T07:11:58.460Z,6.74
2024-03-26T07:14:29.850Z,6.80
2024-03-26T07:17:01.146Z,6.88
2024-03-26T07:19:32.535Z,6.97
2024-03-26T07:22:04.854Z,7.09
2024-03-26T07:24:36.992Z,7.25
2024-03-26T07:27:08.343Z,7.35
2024-03-26T07:29:40.323Z,7.41
2024-03-26T07:32:11.656Z,7.49
2024-03-26T07:34:44.002Z,7.59
2024-03-26T07:37:16.529Z,7.67
2024-03-26T07:39:48.314Z,7.74
2024-03-26T07:42:19.591Z,7.88
2024-03-26T07:44:51.835Z,8.03
2024-03-26T07:47:23.462Z,8.15
2024-03-26T07:49:53.400Z,8.20
2024-03-26T07:52:24.876Z,8.21
2024-03-26T07:54:56.319Z,8.22
2024-03-26T07:57:27.645Z,8.22
2024-03-26T07:59:58.983Z,8.21
2024-03-26T08:02:30.551Z,8.26
2024-03-26T08:05:01.792Z,8.29
2024-03-26T08:07:33.307Z,8.31
2024-03-26T08:10:05.002Z,8.37
2024-03-26T08:12:34.838Z,8.47
2024-03-26T08:15:08.315Z,8.56
2024-03-26T08:17:41.870Z,8.59
2024-03-26T08:20:15.150Z,8.53
2024-03-26T08:22:46.670Z,8.44
2024-03-26T08:25:18.709Z,8.48
2024-03-26T08:27:49.998Z,8.54
2024-03-26T08:30:21.601Z,8.60
2024-03-26T08:32:54.246Z,8.70
2024-03-26T08:35:25.708Z,8.82
2024-03-26T08:37:57.017Z,8.88
2024-03-26T08:40:28.331Z,8.91
2024-03-26T08:42:59.691Z,8.88
2024-03-26T08:45:31.016Z,8.88
2024-03-26T08:48:02.448Z,8.85
2024-03-26T08:50:33.863Z,8.82
2024-03-26T08:53:06.008Z,8.85
2024-03-26T08:55:37.558Z,8.91
2024-03-26T08:58:09.531Z,9.03
2024-03-26T09:00:41.492Z,9.11
2024-03-26T09:03:11.614Z,9.16
2024-03-26T09:05:43.172Z,9.19
2024-03-26T09:08:13.296Z,9.25
2024-03-26T09:10:44.847Z,9.29
2024-03-26T09:13:14.968Z,9.37
2024-03-26T09:15:46.727Z,9.43
2024-03-26T09:18:18.289Z,9.53
2024-03-26T09:20:48.409Z,9.58
2024-03-26T09:23:19.963Z,9.60
2024-03-26T09:25:51.734Z,9.67
2024-03-26T09:28:23.273Z,9.75
2024-03-26T09:30:53.401Z,9.87
2024-03-26T09:33:25.368Z,9.99
2024-03-26T09:35:56.921Z,10.12
2024-03-26T09:38:39.645Z,10.22
2024-03-26T09:41:18.578Z,10.29
2024-03-26T09:43:50.976Z,10.36
2024-03-26T09:46:23.890Z,10.46
2024-03-26T09:48:56.552Z,10.58
2024-03-26T09:51:29.124Z,10.72
2024-03-26T09:54:01.861Z,10.87
2024-03-26T09:56:33.325Z,11.02
2024-03-26T09:59:03.456Z,11.15
2024-03-26T10:01:37.867Z,11.24
2024-03-26T10:04:10.759Z,11.38
2024-03-26T10:06:43.074Z,11.51
2024-03-26T10:09:16.634Z,11.61
2024-03-26T10:11:49.412Z,11.76
2024-03-26T10:14:22.213Z,11.89
2024-03-26T10:16:53.959Z,11.97
2024-03-26T10:19:26.132Z,12.08
2024-03-26T10:21:57.695Z,12.20
2024-03-26T10:24:29.043Z,12.30
2024-03-26T10:26:59.606Z,12.43
2024-03-26T10:29:31.228Z,12.53
2024-03-26T10:32:02.749Z,12.68
2024-03-26T10:34:37.956Z,12.82
2024-03-26T10:37:11.168Z,12.96
2024-03-26T10:39:48.356Z,13.15
2024-03-26T10:42:21.384Z,13.32
2024-03-26T10:44:59.410Z,13.49
2024-03-26T10:47:38.585Z,13.65
2024-03-26T10:50:11.608Z,13.86
2024-03-26T10:52:46.241Z,14.08
2024-03-26T10:55:18.960Z,14.38
2024-03-26T10:57:51.205Z,14.68
2024-03-26T11:00:22.813Z,15.03
2024-03-26T11:02:58.411Z,15.47
2024-03-26T11:05:33.702Z,15.97
2024-03-26T11:08:06.921Z,16.54
2024-03-26T11:11:01.313Z,17.64
2024-03-26T11:13:35.089Z,19.71
2024-03-26T11:16:10.467Z,21.35
2024-03-26T11:18:45.966Z,23.07
2024-03-26T11:21:18.828Z,24.78
2024-03-26T11:23:50.996Z,26.35
2024-03-26T11:26:27.061Z,27.68
2024-03-26T11:29:01.686Z,28.72
2024-03-26T11:31:34.468Z,29.70
2024-03-26T11:34:08.796Z,30.41
2024-03-26T11:36:40.653Z,31.04
2024-03-26T11:39:12.823Z,31.69
2024-03-26T11:41:46.837Z,31.77
2024-03-26T11:44:18.392Z,31.87
2024-03-26T11:46:50.156Z,32.57
2024-03-26T11:49:22.730Z,33.36
2024-03-26T11:51:54.285Z,34.14
2024-03-26T11:54:26.592Z,34.85
2024-03-26T11:56:58.420Z,35.40
2024-03-26T11:59:31.006Z,35.79
2024-03-26T12:02:03.393Z,36.00
2024-03-26T12:04:34.928Z,35.76
2024-03-26T12:07:08.844Z,36.14
2024-03-26T12:09:42.402Z,36.53
2024-03-26T12:12:17.435Z,36.87
2024-03-26T12:14:50.359Z,37.19
2024-03-26T12:17:22.143Z,37.47
2024-03-26T12:19:53.684Z,37.66
2024-03-26T12:22:25.332Z,37.85
2024-03-26T12:24:57.205Z,38.01
2024-03-26T12:27:28.786Z,38.15
2024-03-26T12:30:01.413Z,38.29
2024-03-26T12:32:35.152Z,38.25
2024-03-26T12:35:07.960Z,38.28
2024-03-26T12:37:40.715Z,38.33
2024-03-26T12:40:14.162Z,38.40
2024-03-26T12:42:46.489Z,38.42
2024-03-26T12:45:18.303Z,38.53
2024-03-26T12:47:50.143Z,38.53
2024-03-26T12:50:22.363Z,38.36
2024-03-26T12:52:53.903Z,38.16
2024-03-26T12:55:25.368Z,37.97
2024-03-26T12:57:56.731Z,37.77
2024-03-26T13:00:28.275Z,37.58
2024-03-26T13:02:59.746Z,37.34
2024-03-26T13:05:31.206Z,37.12
2024-03-26T13:08:02.625Z,37.02
2024-03-26T13:10:34.106Z,37.10
2024-03-26T13:13:05.578Z,37.14
2024-03-26T13:15:36.990Z,37.13
2024-03-26T13:18:08.783Z,37.07
2024-03-26T13:20:41.551Z,36.73
2024-03-26T13:23:12.857Z,36.24
2024-03-26T13:25:44.245Z,35.55
2024-03-26T13:28:15.637Z,34.95
2024-03-26T13:30:47.486Z,34.52
2024-03-26T13:33:18.825Z,34.19
2024-03-26T13:35:50.220Z,33.82
2024-03-26T13:38:21.606Z,33.49
2024-03-26T13:40:55.991Z,33.16
2024-03-26T13:43:31.349Z,32.80
2024-03-26T13:46:02.717Z,32.52
2024-03-26T13:48:37.134Z,32.12
2024-03-26T13:51:10.087Z,31.76
2024-03-26T13:53:41.925Z,31.40
2024-03-26T13:56:13.250Z,30.94
2024-03-26T13:58:44.829Z,30.55
2024-03-26T14:01:16.595Z,30.20
2024-03-26T14:03:48.148Z,29.82
2024-03-26T14:06:19.703Z,29.45
2024-03-26T14:08:51.313Z,29.01
2024-03-26T14:11:23.026Z,28.67
2024-03-26T14:13:54.579Z,28.35
2024-03-26T14:16:26.543Z,28.06
2024-03-26T14:18:58.102Z,27.78
2024-03-26T14:21:29.654Z,27.49
2024-03-26T14:24:01.211Z,27.28
2024-03-26T14:26:32.766Z,27.04
2024-03-26T14:29:05.963Z,26.79
2024-03-26T14:31:38.129Z,26.56
2024-03-26T14:34:09.687Z,26.34
2024-03-26T14:36:41.087Z,26.15
2024-03-26T14:39:12.429Z,25.91
2024-03-26T14:41:43.945Z,25.70
2024-03-26T14:44:18.801Z,25.51
2024-03-26T14:46:50.333Z,25.27
2024-03-26T14:49:22.541Z,25.00
2024-03-26T14:51:54.063Z,24.76
2024-03-26T14:54:25.617Z,24.53
2024-03-26T14:56:57.172Z,24.34
2024-03-26T14:59:29.341Z,24.11
2024-03-26T15:02:01.305Z,23.87
2024-03-26T15:04:32.867Z,23.64
2024-03-26T15:07:08.042Z,23.42
2024-03-26T15:09:39.461Z,23.22
2024-03-26T15:12:11.966Z,23.02
2024-03-26T15:14:43.806Z,22.89
2024-03-26T15:17:15.354Z,22.82
2024-03-26T15:19:47.250Z,22.74
2024-03-26T15:22:18.675Z,22.56
2024-03-26T15:24:50.227Z,22.34
2024-03-26T15:27:40.214Z,22.12
2024-03-26T15:30:32.254Z,21.88
2024-03-26T15:33:04.227Z,21.59
2024-03-26T15:35:35.776Z,21.33
2024-03-26T15:38:07.944Z,21.14
2024-03-26T15:40:40.154Z,20.95
2024-03-26T15:43:11.674Z,20.70
2024-03-26T15:45:46.820Z,20.41
2024-03-26T15:48:18.265Z,20.11
2024-03-26T15:50:49.829Z,19.83
2024-03-26T15:53:21.377Z,19.55
2024-03-26T15:55:53.082Z,19.28
2024-03-26T15:58:24.929Z,19.02
2024-03-26T16:00:56.664Z,18.76
2024-03-26T16:03:28.269Z,18.50
2024-03-26T16:06:00.183Z,18.24
2024-03-26T16:08:31.751Z,17.99
2024-03-26T16:11:13.145Z,17.74
2024-03-26T16:13:45.534Z,17.47
2024-03-26T16:16:17.399Z,17.27
2024-03-26T16:18:49.232Z,17.10
2024-03-26T16:21:20.804Z,16.93
2024-03-26T16:23:52.369Z,16.76
2024-03-26T16:26:23.902Z,16.55
2024-03-26T16:28:58.606Z,16.36
2024-03-26T16:31:30.706Z,16.19
2024-03-26T16:34:03.903Z,16.02
2024-03-26T16:36:35.859Z,15.86
2024-03-26T16:39:08.971Z,15.72
2024-03-26T16:41:45.145Z,15.57
2024-03-26T16:44:17.691Z,15.44
2024-03-26T16:46:50.273Z,15.28
2024-03-26T16:49:21.829Z,15.12
2024-03-26T16:51:55.322Z,14.99
2024-03-26T16:54:26.787Z,14.85
2024-03-26T16:56:58.343Z,14.75
2024-03-26T16:59:30.126Z,14.65
2024-03-26T17:02:01.660Z,14.54
2024-03-26T17:04:34.036Z,14.44
2024-03-26T17:07:06.000Z,14.33
2024-03-26T17:09:37.559Z,14.24
2024-03-26T17:12:09.886Z,14.15
2024-03-26T17:14:41.491Z,14.05
2024-03-26T17:17:14.856Z,13.96
2024-03-26T17:19:47.273Z,13.86
2024-03-26T17:22:18.841Z,13.75
2024-03-26T17:24:50.380Z,13.65
2024-03-26T17:27:22.142Z,13.54
2024-03-26T17:29:53.692Z,13.45
2024-03-26T17:32:25.462Z,13.36
2024-03-26T17:34:57.418Z,13.27
2024-03-26T17:37:28.977Z,13.17
2024-03-26T17:40:00.528Z,13.07
2024-03-26T17:42:34.274Z,12.98
2024-03-26T17:45:06.820Z,12.91
2024-03-26T17:47:39.599Z,12.83
2024-03-26T17:50:12.294Z,12.75
2024-03-26T17:52:46.370Z,12.67
2024-03-26T17:55:18.501Z,12.59
2024-03-26T17:57:50.034Z,12.53
2024-03-26T18:00:22.282Z,12.46
2024-03-26T18:02:53.760Z,12.39
2024-03-26T18:05:25.514Z,12.32
2024-03-26T18:07:55.643Z,12.26
2024-03-26T18:10:27.197Z,12.19
2024-03-26T18:12:57.317Z,12.14
2024-03-26T18:15:30.519Z,12.08
2024-03-26T18:18:02.069Z,12.04
2024-03-26T18:20:36.900Z,12.01
2024-03-26T18:23:09.485Z,11.99
2024-03-26T18:25:41.037Z,11.96
2024-03-26T18:28:12.594Z,11.93
2024-03-26T18:30:44.148Z,11.90
2024-03-26T18:33:15.718Z,11.87
2024-03-26T18:35:57.469Z,11.83
2024-03-26T18:38:31.932Z,11.81
2024-03-26T18:41:07.376Z,11.78
2024-03-26T18:43:41.599Z,11.75
2024-03-26T18:46:14.398Z,11.72
2024-03-26T18:48:47.368Z,11.69
2024-03-26T18:51:18.971Z,11.65
2024-03-26T18:53:50.480Z,11.63
2024-03-26T18:56:20.610Z,11.59
2024-03-26T18:58:52.363Z,11.53
2024-03-26T19:01:26.118Z,11.50
2024-03-26T19:03:57.728Z,11.44
2024-03-26T19:06:29.404Z,11.40
2024-03-26T19:09:02.319Z,11.34
2024-03-26T19:11:35.167Z,11.31
2024-03-26T19:14:06.612Z,11.28
2024-03-26T19:16:38.373Z,11.23
2024-03-26T19:19:10.019Z,11.17
2024-03-26T19:21:41.495Z,11.14
2024-03-26T19:24:13.246Z,11.11
2024-03-26T19:26:44.803Z,11.07
2024-03-26T19:29:16.568Z,11.03
2024-03-26T19:31:48.736Z,11.00
2024-03-26T19:34:19.985Z,10.98
2024-03-26T19:36:56.574Z,10.95
2024-03-26T19:39:28.126Z,10.92
2024-03-26T19:41:59.672Z,10.88
2024-03-26T19:44:30.404Z,10.86
2024-03-26T19:47:01.969Z,10.81
2024-03-26T19:49:33.525Z,10.77
2024-03-26T19:52:05.625Z,10.74
2024-03-26T19:54:37.867Z,10.71
2024-03-26T19:57:09.413Z,10.69
2024-03-26T19:59:39.545Z,10.68
2024-03-26T20:02:11.295Z,10.64
2024-03-26T20:04:42.854Z,10.62
2024-03-26T20:07:18.306Z,10.60
2024-03-26T20:09:50.687Z,10.56
2024-03-26T20:12:22.682Z,10.54
2024-03-26T20:14:54.818Z,10.53
2024-03-26T20:17:26.996Z,10.52
2024-03-26T20:19:58.541Z,10.50
2024-03-26T20:22:30.502Z,10.49
2024-03-26T20:25:02.815Z,10.47
2024-03-26T20:27:34.434Z,10.45
2024-03-26T20:30:10.289Z,10.44
2024-03-26T20:32:41.851Z,10.41
2024-03-26T20:35:12.595Z,10.40
2024-03-26T20:37:46.014Z,10.37
2024-03-26T20:40:17.691Z,10.35
2024-03-26T20:42:49.300Z,10.35
2024-03-26T20:45:20.875Z,10.34
2024-03-26T20:47:52.410Z,10.34
2024-03-26T20:50:22.327Z,10.34
2024-03-26T20:52:53.897Z,10.31
2024-03-26T20:55:25.441Z,10.29
2024-03-26T20:57:55.565Z,10.28
2024-03-26T21:00:27.134Z,10.24
2024-03-26T21:02:57.791Z,10.23
2024-03-26T21:05:29.413Z,10.20
2024-03-26T21:08:00.968Z,10.19
2024-03-26T21:10:33.164Z,10.18
2024-03-26T21:13:05.242Z,10.13
2024-03-26T21:15:36.870Z,10.11
2024-03-26T21:18:14.154Z,10.09
2024-03-26T21:20:51.039Z,10.08
2024-03-26T21:23:22.794Z,10.05
2024-03-26T21:25:54.354Z,10.04
2024-03-26T21:28:25.908Z,10.01
2024-03-26T21:31:01.496Z,10.00
2024-03-26T21:33:33.116Z,9.97
2024-03-26T21:36:04.389Z,9.95
2024-03-26T21:38:36.226Z,9.89
2024-03-26T21:41:08.461Z,9.87
2024-03-26T21:43:40.988Z,9.85
2024-03-26T21:46:12.536Z,9.83
2024-03-26T21:48:44.088Z,9.82
2024-03-26T21:51:19.370Z,9.79
2024-03-26T21:53:51.706Z,9.76
2024-03-26T21:56:23.884Z,9.74
2024-03-26T21:58:55.635Z,9.72
2024-03-26T22:01:25.555Z,9.71
2024-03-26T22:03:57.116Z,9.68
2024-03-26T22:06:27.434Z,9.67
2024-03-26T22:08:57.559Z,9.63
2024-03-26T22:11:29.124Z,9.59
2024-03-26T22:13:59.239Z,9.56
2024-03-26T22:16:30.797Z,9.52
2024-03-26T22:19:01.328Z,9.50
2024-03-26T22:21:32.882Z,9.46
2024-03-26T22:24:03.966Z,9.44
2024-03-26T22:26:35.715Z,9.41
2024-03-26T22:29:07.348Z,9.39
2024-03-26T22:31:37.264Z,9.36
2024-03-26T22:34:09.434Z,9.32
2024-03-26T22:36:41.194Z,9.30
2024-03-26T22:39:11.728Z,9.28
2024-03-26T22:41:43.283Z,9.25
2024-03-26T22:44:13.200Z,9.23
2024-03-26T22:46:44.758Z,9.19
2024-03-26T22:49:14.671Z,9.17
2024-03-26T22:51:46.229Z,9.13
2024-03-26T22:54:18.001Z,9.11
2024-03-26T22:56:52.519Z,9.10
2024-03-26T22:59:26.437Z,9.08
2024-03-26T23:01:58.186Z,9.06
2024-03-26T23:04:30.158Z,9.05
2024-03-26T23:07:01.713Z,9.03
2024-03-26T23:09:31.835Z,9.00
2024-03-26T23:12:03.388Z,8.95
2024-03-26T23:14:34.943Z,8.91
2024-03-26T23:17:04.856Z,8.90
2024-03-26T23:19:36.153Z,8.84
2024-03-26T23:22:08.223Z,8.82
2024-03-26T23:24:39.736Z,8.79
2024-03-26T23:27:11.293Z,8.76
2024-03-26T23:29:42.846Z,8.73
2024-03-26T23:32:15.024Z,8.71
2024-03-26T23:34:46.575Z,8.70
2024-03-26T23:37:18.131Z,8.68
2024-03-26T23:39:48.661Z,8.67
2024-03-26T23:42:18.481Z,8.63
2024-03-26T23:44:49.938Z,8.58
2024-03-26T23:47:22.103Z,8.56
2024-03-26T23:49:54.275Z,8.55
2024-03-26T23:52:25.837Z,8.53
2024-03-26T23:54:57.795Z,8.52
2024-03-26T23:57:29.577Z,8.54
